Time;durP1;ratioP1;P1;durP2;ratioP2;P2;SDS_P1;SDS_P2;PMS_P1;PMS_P2;Temp;Humidity;BMP_temperature;BMP_pressure;BME280_temperature;BME280_humidity;BME280_pressure;Samples;Min_cycle;Max_cycle;Signal;HPM_P1;HPM_P2
2022/05/31 00:00:36;;;;;;;9.20;6.95;;;10.20;99.90;;;;;;2097070;28;20103;-69
2022/05/31 00:01:38;;;;;;;7.53;6.72;;;10.20;99.90;;;;;;2096932;28;20036;-68
2022/05/31 00:02:39;;;;;;;7.88;6.88;;;10.20;99.90;;;;;;2097060;28;20605;-69
2022/05/31 00:03:40;;;;;;;8.27;7.00;;;10.20;99.90;;;;;;2096526;28;20549;-68
2022/05/31 00:04:41;;;;;;;9.00;7.00;;;10.20;99.90;;;;;;2096620;28;20074;-69
2022/05/31 00:05:41;;;;;;;8.52;6.97;;;10.20;99.90;;;;;;2096846;28;20415;-69
2022/05/31 00:06:43;;;;;;;8.63;7.50;;;10.20;99.90;;;;;;2097048;28;20434;-69
2022/05/31 00:07:43;;;;;;;8.48;7.40;;;10.20;99.90;;;;;;2097141;28;20032;-69
2022/05/31 00:08:44;;;;;;;7.78;6.97;;;10.10;99.90;;;;;;2097137;28;20039;-69
2022/05/31 00:09:45;;;;;;;8.15;7.25;;;10.10;99.90;;;;;;2097077;28;20040;-68
2022/05/31 00:10:46;;;;;;;8.27;7.38;;;10.10;99.90;;;;;;2096839;28;20040;-69
2022/05/31 00:11:47;;;;;;;8.85;7.50;;;10.10;99.90;;;;;;2096989;28;20111;-68
2022/05/31 00:12:48;;;;;;;8.45;7.20;;;10.00;99.90;;;;;;2097019;28;20033;-68
2022/05/31 00:13:49;;;;;;;8.38;7.40;;;10.00;99.90;;;;;;2096943;28;20592;-68
2022/05/31 00:14:49;;;;;;;8.32;6.80;;;10.00;99.90;;;;;;2097026;28;20043;-70
2022/05/31 00:15:50;;;;;;;8.00;7.20;;;10.00;99.90;;;;;;2096744;28;20056;-67
2022/05/31 00:16:51;;;;;;;8.57;7.35;;;10.00;99.90;;;;;;2096690;28;20064;-69
2022/05/31 00:17:52;;;;;;;9.88;7.32;;;10.00;99.90;;;;;;2096935;28;20046;-69
2022/05/31 00:18:52;;;;;;;9.35;7.32;;;10.00;99.90;;;;;;2096916;28;20082;-69
2022/05/31 00:19:53;;;;;;;8.75;7.13;;;10.00;99.90;;;;;;2096927;28;20029;-69
2022/05/31 00:20:54;;;;;;;8.75;7.47;;;10.00;99.90;;;;;;2095887;28;20037;-69
2022/05/31 00:22:03;;;;;;;8.60;7.70;;;10.00;99.90;;;;;;2096203;28;20032;-68
2022/05/31 00:23:04;;;;;;;8.23;7.22;;;10.00;99.90;;;;;;2096186;28;20036;-69
2022/05/31 00:24:06;;;;;;;8.25;7.13;;;9.90;99.90;;;;;;2087882;28;20025;-69
2022/05/31 00:25:08;;;;;;;7.85;7.15;;;9.90;99.90;;;;;;2087827;28;20490;-70
2022/05/31 00:26:09;;;;;;;8.57;7.53;;;9.90;99.90;;;;;;2096020;28;20032;-70
2022/05/31 00:27:13;;;;;;;9.38;7.45;;;9.90;99.90;;;;;;2096631;28;20481;-68
2022/05/31 00:28:14;;;;;;;8.25;7.35;;;9.90;99.90;;;;;;2096843;28;20047;-68
2022/05/31 00:29:15;;;;;;;9.15;7.43;;;9.90;99.90;;;;;;2096844;28;20654;-69
2022/05/31 00:30:16;;;;;;;8.70;7.28;;;9.90;99.90;;;;;;2096689;28;20024;-69
2022/05/31 00:31:16;;;;;;;9.20;7.20;;;9.80;99.90;;;;;;2096727;28;20052;-68
2022/05/31 00:32:30;;;;;;;7.97;7.18;;;9.80;99.90;;;;;;2096970;28;20484;-69
2022/05/31 00:33:31;;;;;;;8.40;7.50;;;9.80;99.90;;;;;;2096978;28;20036;-68
2022/05/31 00:34:35;;;;;;;10.23;7.78;;;9.80;99.90;;;;;;2096275;28;20042;-70
2022/05/31 00:35:40;;;;;;;8.50;7.30;;;9.80;99.90;;;;;;2088180;28;20032;-68
2022/05/31 00:36:44;;;;;;;8.80;7.18;;;9.80;99.90;;;;;;2096281;28;20060;-66
2022/05/31 00:37:45;;;;;;;7.93;7.13;;;9.70;99.90;;;;;;2096187;28;20821;-69
2022/05/31 00:38:46;;;;;;;8.00;7.20;;;9.70;99.90;;;;;;2096255;28;20134;-67
2022/05/31 00:39:47;;;;;;;9.30;7.18;;;9.70;99.90;;;;;;2096127;28;20036;-67
2022/05/31 00:40:47;;;;;;;8.15;7.13;;;9.70;99.90;;;;;;2096055;28;20110;-67
2022/05/31 00:42:00;;;;;;;8.55;7.72;;;9.70;99.90;;;;;;2096872;28;20020;-68
2022/05/31 00:43:04;;;;;;;8.93;7.68;;;9.70;99.90;;;;;;2096056;28;20541;-68
2022/05/31 00:44:08;;;;;;;8.20;7.40;;;9.70;99.90;;;;;;2096214;28;20021;-69
2022/05/31 00:45:09;;;;;;;8.07;6.97;;;9.70;99.90;;;;;;2095877;28;20453;-67
2022/05/31 00:46:10;;;;;;;9.10;7.40;;;9.60;99.90;;;;;;2087925;28;20043;-69
2022/05/31 00:47:25;;;;;;;8.35;7.45;;;9.60;99.90;;;;;;2096318;28;20032;-67
2022/05/31 00:48:31;;;;;;;9.27;7.82;;;9.60;99.90;;;;;;2096880;28;20032;-67
2022/05/31 00:49:43;;;;;;;8.18;7.20;;;9.60;99.90;;;;;;2096342;28;20082;-67
2022/05/31 00:50:48;;;;;;;9.43;7.97;;;9.60;99.90;;;;;;2096485;28;20128;-66
2022/05/31 00:51:52;;;;;;;8.20;7.30;;;9.60;99.90;;;;;;2097034;28;20441;-69
2022/05/31 00:52:56;;;;;;;8.55;7.30;;;9.60;99.90;;;;;;2097067;28;20020;-68
2022/05/31 00:54:01;;;;;;;7.80;7.00;;;9.60;99.90;;;;;;2096200;28;20034;-69
2022/05/31 00:55:22;;;;;;;8.30;7.40;;;9.60;99.90;;;;;;2088650;28;20021;-68
2022/05/31 00:56:26;;;;;;;8.50;7.00;;;9.50;99.90;;;;;;2096443;28;20029;-66
2022/05/31 00:57:29;;;;;;;7.93;7.13;;;9.60;99.90;;;;;;2096145;28;20550;-67
2022/05/31 00:58:37;;;;;;;7.80;7.00;;;9.50;99.90;;;;;;2088388;28;20025;-68
2022/05/31 00:59:46;;;;;;;7.30;6.60;;;9.50;99.90;;;;;;2088950;28;20074;-66
2022/05/31 01:00:47;;;;;;;7.68;6.88;;;9.50;99.90;;;;;;2088881;28;20029;-65
2022/05/31 01:01:51;;;;;;;7.82;7.03;;;9.50;99.90;;;;;;2096132;28;20386;-67
2022/05/31 01:02:52;;;;;;;8.80;6.72;;;9.50;99.90;;;;;;2096296;28;20024;-67
2022/05/31 01:03:54;;;;;;;7.15;6.45;;;9.50;99.90;;;;;;2096142;28;20040;-67
2022/05/31 01:04:58;;;;;;;7.43;6.72;;;9.50;99.90;;;;;;2087992;28;20052;-70
2022/05/31 01:05:59;;;;;;;7.93;7.07;;;9.50;99.90;;;;;;2095975;28;20028;-65
2022/05/31 01:07:00;;;;;;;8.45;7.10;;;9.50;99.90;;;;;;2096077;28;20035;-67
2022/05/31 01:08:01;;;;;;;8.52;7.63;;;9.50;99.90;;;;;;2096021;28;20463;-67
2022/05/31 01:09:09;;;;;;;8.60;7.70;;;9.40;99.90;;;;;;2095922;28;20032;-67
2022/05/31 01:10:30;;;;;;;8.30;6.72;;;9.40;99.90;;;;;;2095969;28;20396;-67
2022/05/31 01:11:34;;;;;;;9.45;7.18;;;9.40;99.90;;;;;;2096458;28;20046;-67
2022/05/31 01:12:55;;;;;;;8.18;7.30;;;9.30;99.90;;;;;;2095949;28;20553;-67
2022/05/31 01:14:14;;;;;;;8.18;7.30;;;9.30;99.90;;;;;;2096053;28;20122;-68
2022/05/31 01:15:33;;;;;;;8.18;7.30;;;9.30;99.90;;;;;;2096116;28;20056;-69
2022/05/31 01:17:03;;;;;;;8.05;7.25;;;9.30;99.90;;;;;;2094234;28;20128;-66
2022/05/31 01:18:22;;;;;;;8.45;7.25;;;9.30;99.90;;;;;;2096387;28;20037;-67
2022/05/31 01:19:56;;;;;;;10.00;7.45;;;9.30;99.90;;;;;;2096495;28;20033;-66
2022/05/31 01:21:00;;;;;;;8.80;7.28;;;9.20;99.90;;;;;;2095569;28;20032;-66
2022/05/31 01:22:12;;;;;;;9.13;7.25;;;9.20;99.90;;;;;;2089325;28;20029;-67
2022/05/31 01:23:17;;;;;;;8.52;7.57;;;9.20;99.90;;;;;;2088146;28;20036;-66
2022/05/31 01:24:20;;;;;;;8.40;7.43;;;9.20;99.90;;;;;;2095916;28;20020;-67
2022/05/31 01:25:54;;;;;;;8.25;7.30;;;9.20;99.90;;;;;;2096220;28;20043;-68
2022/05/31 01:27:13;;;;;;;7.72;6.93;;;9.20;99.90;;;;;;2095591;28;20390;-66
2022/05/31 01:28:32;;;;;;;8.00;7.20;;;9.20;99.90;;;;;;2096040;28;20044;-68
2022/05/31 01:29:37;;;;;;;8.90;7.20;;;9.20;99.90;;;;;;2096411;28;20042;-65
2022/05/31 01:30:59;;;;;;;8.80;6.97;;;9.10;99.90;;;;;;2095467;28;20024;-67
2022/05/31 01:32:04;;;;;;;8.68;7.20;;;9.10;99.90;;;;;;2095982;28;20091;-67
2022/05/31 01:33:24;;;;;;;7.80;6.97;;;9.10;99.90;;;;;;2096546;28;20440;-66
2022/05/31 01:34:41;;;;;;;8.63;7.82;;;9.10;99.90;;;;;;2096191;28;20052;-66
2022/05/31 01:35:42;;;;;;;8.65;7.57;;;9.00;99.90;;;;;;2095546;28;20036;-67
2022/05/31 01:36:49;;;;;;;7.60;6.90;;;9.00;99.90;;;;;;2095720;28;20028;-66
2022/05/31 01:37:56;;;;;;;7.75;6.95;;;9.00;99.90;;;;;;2095660;28;20032;-66
2022/05/31 01:39:07;;;;;;;7.72;6.88;;;8.90;99.90;;;;;;2095371;28;20501;-68
2022/05/31 01:40:12;;;;;;;8.35;6.95;;;9.00;99.90;;;;;;2095761;28;20024;-67
2022/05/31 01:41:31;;;;;;;7.68;6.93;;;9.00;99.90;;;;;;2096395;28;20940;-67
2022/05/31 01:42:42;;;;;;;7.95;7.15;;;9.00;99.90;;;;;;2096452;28;20032;-66
2022/05/31 01:43:45;;;;;;;7.97;7.10;;;9.00;99.90;;;;;;2095527;28;20027;-68
2022/05/31 01:44:53;;;;;;;7.82;7.00;;;8.90;99.90;;;;;;2087410;28;20440;-67
2022/05/31 01:46:02;;;;;;;8.50;7.53;;;8.90;99.90;;;;;;2088433;28;20033;-66
2022/05/31 01:47:04;;;;;;;8.43;7.28;;;8.90;99.90;;;;;;2095851;28;20028;-67
2022/05/31 01:48:06;;;;;;;7.95;7.15;;;8.90;99.90;;;;;;2096179;28;20021;-67
2022/05/31 01:49:10;;;;;;;8.00;7.20;;;8.90;99.90;;;;;;2095462;28;20465;-67
2022/05/31 01:50:16;;;;;;;8.63;7.55;;;8.90;99.90;;;;;;2095528;28;20071;-67
2022/05/31 01:51:17;;;;;;;7.40;6.70;;;8.90;99.90;;;;;;2096212;28;20074;-68
2022/05/31 01:52:18;;;;;;;7.63;6.82;;;8.90;99.90;;;;;;2096243;28;20778;-67
2022/05/31 01:53:18;;;;;;;7.88;7.07;;;8.80;99.90;;;;;;2095509;28;20085;-67
2022/05/31 01:54:19;;;;;;;7.60;6.90;;;8.80;99.90;;;;;;2087331;28;20167;-67
2022/05/31 01:55:21;;;;;;;9.50;7.20;;;8.80;99.90;;;;;;2086994;28;20033;-69
2022/05/31 01:56:22;;;;;;;7.85;6.95;;;8.80;99.90;;;;;;2087246;28;20659;-66
2022/05/31 01:57:25;;;;;;;7.93;6.90;;;8.80;99.90;;;;;;2087262;28;20104;-68
2022/05/31 01:58:31;;;;;;;8.77;7.28;;;8.70;99.90;;;;;;2095623;28;20090;-67
2022/05/31 01:59:36;;;;;;;7.47;6.55;;;8.80;99.90;;;;;;2095477;28;20069;-67
2022/05/31 02:00:37;;;;;;;8.52;6.95;;;8.70;99.90;;;;;;2087632;28;20035;-68
2022/05/31 02:01:39;;;;;;;7.57;6.63;;;8.70;99.90;;;;;;2095531;28;20033;-68
2022/05/31 02:02:41;;;;;;;8.40;6.95;;;8.70;99.90;;;;;;2095537;28;20044;-68
2022/05/31 02:03:45;;;;;;;8.07;7.28;;;8.70;99.90;;;;;;2095653;28;20116;-69
2022/05/31 02:04:46;;;;;;;8.25;7.45;;;8.70;99.90;;;;;;2095537;28;20032;-69
2022/05/31 02:05:50;;;;;;;10.27;8.15;;;8.70;99.90;;;;;;2087114;28;20032;-67
2022/05/31 02:07:10;;;;;;;9.25;7.97;;;8.70;99.90;;;;;;2087829;28;20526;-68
2022/05/31 02:08:12;;;;;;;8.73;7.82;;;8.70;99.90;;;;;;2089783;28;20036;-68
2022/05/31 02:09:14;;;;;;;8.20;7.40;;;8.60;99.90;;;;;;2095411;28;20114;-68
2022/05/31 02:10:18;;;;;;;8.18;7.38;;;8.60;99.90;;;;;;2087598;28;20152;-70
2022/05/31 02:11:21;;;;;;;8.23;7.30;;;8.60;99.90;;;;;;2087354;28;20049;-69
2022/05/31 02:12:28;;;;;;;8.02;7.22;;;8.60;99.90;;;;;;2095431;28;20024;-67
2022/05/31 02:13:54;;;;;;;9.55;8.07;;;8.60;99.90;;;;;;2091144;28;20115;-68
2022/05/31 02:14:59;;;;;;;8.20;7.28;;;8.60;99.90;;;;;;2087699;28;20492;-67
2022/05/31 02:16:00;;;;;;;8.80;7.90;;;8.50;99.90;;;;;;2095214;28;20036;-69
2022/05/31 02:17:26;;;;;;;8.15;7.35;;;8.50;99.90;;;;;;2067582;28;20080;-68
2022/05/31 02:20:28;;;;;;;8.95;8.05;;;8.50;99.90;;;;;;2096072;28;20029;-70
2022/05/31 02:21:46;;;;;;;8.50;7.60;;;8.40;99.90;;;;;;2095449;28;20135;-67
2022/05/31 02:22:47;;;;;;;9.48;8.15;;;8.40;99.90;;;;;;2081472;28;20030;-69
2022/05/31 02:23:48;;;;;;;9.43;7.97;;;8.40;99.90;;;;;;2087166;28;20113;-68
2022/05/31 02:24:49;;;;;;;9.75;7.90;;;8.40;99.90;;;;;;2095390;28;20060;-67
2022/05/31 02:25:50;;;;;;;9.27;8.38;;;8.40;99.90;;;;;;2095172;28;20025;-68
2022/05/31 02:26:52;;;;;;;8.73;7.82;;;8.30;99.90;;;;;;2095298;28;20025;-67
2022/05/31 02:27:53;;;;;;;9.00;8.10;;;8.30;99.90;;;;;;2087173;28;20040;-67
2022/05/31 02:28:54;;;;;;;9.32;8.02;;;8.30;99.90;;;;;;2087065;28;20048;-70
2022/05/31 02:29:55;;;;;;;8.45;7.65;;;8.30;99.90;;;;;;2095406;28;20530;-68
2022/05/31 02:30:55;;;;;;;8.98;8.07;;;8.30;99.90;;;;;;2095370;28;20029;-67
2022/05/31 02:31:58;;;;;;;8.57;7.78;;;8.30;99.90;;;;;;2095603;28;20021;-69
2022/05/31 02:32:59;;;;;;;8.40;7.57;;;8.30;99.90;;;;;;2096167;28;20033;-68
2022/05/31 02:34:01;;;;;;;8.60;7.80;;;8.30;99.90;;;;;;2096322;28;20047;-67
2022/05/31 02:35:03;;;;;;;9.43;8.20;;;8.30;99.90;;;;;;2095504;28;20032;-70
2022/05/31 02:36:04;;;;;;;8.50;7.70;;;8.30;99.90;;;;;;2095299;28;20124;-66
2022/05/31 02:37:05;;;;;;;9.10;8.18;;;8.30;99.90;;;;;;2096168;28;20666;-68
2022/05/31 02:38:06;;;;;;;8.93;8.02;;;8.30;99.90;;;;;;2095309;28;20024;-68
2022/05/31 02:39:07;;;;;;;9.15;8.18;;;8.30;99.90;;;;;;2095503;28;20032;-69
2022/05/31 02:40:13;;;;;;;9.40;8.40;;;8.20;99.90;;;;;;2095264;28;20502;-68
2022/05/31 02:41:14;;;;;;;9.82;8.80;;;8.20;99.90;;;;;;2087120;28;20031;-68
2022/05/31 02:42:16;;;;;;;8.55;7.65;;;8.20;99.90;;;;;;2086804;28;20037;-70
2022/05/31 02:43:17;;;;;;;9.43;8.30;;;8.20;99.90;;;;;;2095305;28;20826;-68
2022/05/31 02:44:19;;;;;;;9.38;8.27;;;8.20;99.90;;;;;;2087154;28;20025;-68
2022/05/31 02:45:20;;;;;;;9.07;8.18;;;8.20;99.90;;;;;;2087019;28;20048;-67
2022/05/31 02:46:22;;;;;;;10.48;8.73;;;8.20;99.90;;;;;;2087306;28;20045;-67
2022/05/31 02:47:23;;;;;;;10.20;9.10;;;8.20;99.90;;;;;;2095485;28;20048;-68
2022/05/31 02:48:24;;;;;;;9.30;8.40;;;8.20;99.90;;;;;;2096203;28;20471;-68
2022/05/31 02:49:25;;;;;;;9.75;8.57;;;8.20;99.90;;;;;;2095459;28;20565;-67
2022/05/31 02:50:27;;;;;;;9.63;8.63;;;8.20;99.90;;;;;;2087247;28;20056;-70
2022/05/31 02:51:28;;;;;;;9.23;8.20;;;8.20;99.90;;;;;;2087445;28;20029;-67
2022/05/31 02:52:28;;;;;;;9.35;8.40;;;8.20;99.90;;;;;;2097131;28;20478;-67
2022/05/31 02:53:31;;;;;;;9.20;8.30;;;8.20;99.90;;;;;;2089041;28;20028;-67
2022/05/31 02:54:32;;;;;;;9.18;8.27;;;8.20;99.90;;;;;;2088877;28;20025;-68
2022/05/31 02:55:51;;;;;;;9.52;8.52;;;8.20;99.90;;;;;;2097123;28;20020;-67
2022/05/31 02:57:17;;;;;;;9.80;7.85;;;8.20;99.90;;;;;;2081286;28;20052;-70
2022/05/31 02:58:50;;;;;;;9.43;8.43;;;8.30;99.90;;;;;;2097469;28;20054;-68
2022/05/31 03:00:10;;;;;;;10.32;8.93;;;8.30;99.90;;;;;;2097690;28;20040;-68
2022/05/31 03:01:33;;;;;;;9.55;8.55;;;8.30;99.90;;;;;;2097505;28;20414;-68
2022/05/31 03:02:52;;;;;;;11.77;9.45;;;8.30;99.90;;;;;;2097813;28;20025;-67
2022/05/31 03:03:59;;;;;;;10.70;8.70;;;8.30;99.90;;;;;;2096770;28;20036;-68
2022/05/31 03:05:22;;;;;;;9.48;8.48;;;8.30;99.90;;;;;;2097026;28;20032;-69
2022/05/31 03:06:25;;;;;;;10.05;8.88;;;8.30;99.90;;;;;;2097969;28;20044;-68
2022/05/31 03:07:41;;;;;;;9.48;8.48;;;8.30;99.90;;;;;;2097040;28;20029;-67
2022/05/31 03:08:47;;;;;;;9.40;8.43;;;8.30;99.90;;;;;;2089374;28;20692;-68
2022/05/31 03:10:04;;;;;;;9.60;8.60;;;8.40;99.90;;;;;;2090740;28;20037;-69
2022/05/31 03:11:10;;;;;;;9.60;8.60;;;8.40;99.90;;;;;;2090673;28;20044;-67
2022/05/31 03:12:17;;;;;;;9.98;8.70;;;8.40;99.90;;;;;;2097000;28;20036;-67
2022/05/31 03:13:21;;;;;;;9.25;8.35;;;8.40;99.90;;;;;;2089278;28;20075;-66
2022/05/31 03:14:54;;;;;;;9.60;8.60;;;8.50;99.90;;;;;;2096977;28;20113;-70
2022/05/31 03:16:00;;;;;;;10.35;9.18;;;8.50;99.90;;;;;;2079461;28;20040;-68
2022/05/31 03:17:41;;;;;;;10.55;9.10;;;8.50;99.90;;;;;;2093381;28;20047;-68
2022/05/31 03:18:49;;;;;;;10.10;8.85;;;8.60;99.90;;;;;;2096173;28;20028;-69
2022/05/31 03:19:58;;;;;;;10.13;9.07;;;8.60;99.90;;;;;;2089434;28;20165;-68
2022/05/31 03:21:04;;;;;;;10.23;8.77;;;8.60;99.90;;;;;;2096963;28;20020;-67
2022/05/31 03:22:11;;;;;;;10.32;9.23;;;8.60;99.90;;;;;;2088747;28;20033;-68
2022/05/31 03:23:17;;;;;;;10.82;9.25;;;8.60;99.90;;;;;;2089826;28;20475;-68
2022/05/31 03:24:31;;;;;;;11.25;9.55;;;8.70;99.90;;;;;;2097710;28;20532;-68
2022/05/31 03:25:32;;;;;;;10.20;9.10;;;8.70;99.90;;;;;;2096620;28;20020;-73
2022/05/31 03:26:36;;;;;;;12.18;9.90;;;8.70;99.90;;;;;;2096955;28;20546;-68
2022/05/31 03:27:37;;;;;;;10.93;9.70;;;8.70;99.90;;;;;;2096894;28;20037;-69
2022/05/31 03:28:38;;;;;;;11.07;9.55;;;8.70;99.90;;;;;;2096969;28;20620;-67
2022/05/31 03:29:43;;;;;;;10.32;9.20;;;8.80;99.90;;;;;;2097660;28;20032;-69
2022/05/31 03:30:43;;;;;;;11.02;9.82;;;8.80;99.90;;;;;;2097286;28;20042;-70
2022/05/31 03:31:45;;;;;;;9.88;8.88;;;8.80;99.90;;;;;;2096622;28;20577;-69
2022/05/31 03:32:47;;;;;;;11.15;9.70;;;8.80;99.90;;;;;;2096762;28;20090;-70
2022/05/31 03:33:47;;;;;;;10.30;9.20;;;8.90;99.90;;;;;;2097336;28;20399;-68
2022/05/31 03:34:48;;;;;;;10.80;9.70;;;8.90;99.90;;;;;;2096752;28;20029;-69
2022/05/31 03:35:50;;;;;;;11.13;9.95;;;8.90;99.90;;;;;;2088305;28;20029;-70
2022/05/31 03:36:58;;;;;;;10.75;9.43;;;8.90;99.90;;;;;;2089227;28;20028;-69
2022/05/31 03:37:59;;;;;;;10.32;9.23;;;8.90;99.90;;;;;;2088417;28;20036;-69
2022/05/31 03:39:07;;;;;;;10.77;9.68;;;9.00;99.90;;;;;;2096659;28;20091;-68
2022/05/31 03:40:09;;;;;;;10.98;9.27;;;9.00;99.90;;;;;;2088121;28;20082;-70
2022/05/31 03:41:10;;;;;;;11.35;10.10;;;9.00;99.90;;;;;;2088390;28;20025;-67
2022/05/31 03:42:29;;;;;;;10.88;9.48;;;9.00;99.90;;;;;;2090743;28;20017;-70
2022/05/31 03:43:32;;;;;;;11.00;9.52;;;9.00;99.90;;;;;;2088383;28;20480;-70
2022/05/31 03:44:52;;;;;;;11.48;9.38;;;9.10;99.90;;;;;;2096866;28;20048;-69
2022/05/31 03:46:24;;;;;;;12.40;9.82;;;9.10;99.90;;;;;;2096493;28;20031;-70
2022/05/31 03:47:36;;;;;;;10.32;9.20;;;9.10;99.90;;;;;;2096751;28;20514;-69
2022/05/31 03:49:15;;;;;;;11.90;9.57;;;9.10;99.90;;;;;;2086955;28;20040;-68
2022/05/31 03:50:21;;;;;;;10.73;9.45;;;9.20;99.90;;;;;;2096282;28;20028;-69
2022/05/31 03:51:22;;;;;;;13.20;10.50;;;9.20;99.90;;;;;;2087997;28;20108;-69
2022/05/31 03:52:25;;;;;;;14.02;11.57;;;9.20;99.90;;;;;;2088377;28;20479;-69
2022/05/31 03:53:27;;;;;;;14.45;11.70;;;9.30;99.90;;;;;;2096466;28;20095;-70
2022/05/31 03:54:28;;;;;;;13.75;11.90;;;9.20;99.90;;;;;;2096318;28;20028;-68
2022/05/31 03:55:52;;;;;;;13.02;10.63;;;9.20;99.90;;;;;;2096281;28;20045;-70
2022/05/31 03:56:54;;;;;;;13.13;11.05;;;9.20;99.90;;;;;;2096339;28;20025;-70
2022/05/31 03:57:55;;;;;;;12.57;10.95;;;9.20;99.90;;;;;;2088244;28;20418;-70
2022/05/31 03:59:10;;;;;;;12.20;10.85;;;9.20;99.90;;;;;;2090041;28;20033;-70
2022/05/31 04:00:12;;;;;;;12.70;10.52;;;9.20;99.90;;;;;;2088040;28;20189;-70
2022/05/31 04:01:19;;;;;;;15.10;12.30;;;9.20;99.90;;;;;;2096678;28;20495;-69
2022/05/31 04:02:20;;;;;;;15.20;11.95;;;9.30;99.90;;;;;;2095816;28;20023;-70
2022/05/31 04:03:21;;;;;;;12.57;10.68;;;9.20;99.90;;;;;;2088076;28;20028;-70
2022/05/31 04:04:24;;;;;;;13.65;11.10;;;9.20;99.90;;;;;;2088463;28;20021;-68
2022/05/31 04:05:25;;;;;;;14.75;11.32;;;9.20;99.90;;;;;;2087868;28;20048;-70
2022/05/31 04:06:26;;;;;;;12.95;10.85;;;9.20;99.90;;;;;;2088184;28;20025;-69
2022/05/31 04:07:27;;;;;;;12.40;11.10;;;9.20;99.90;;;;;;2088101;28;20071;-70
2022/05/31 04:08:27;;;;;;;12.02;10.10;;;9.20;99.90;;;;;;2088037;28;20105;-69
2022/05/31 04:09:28;;;;;;;12.85;10.27;;;9.20;99.90;;;;;;2087786;28;20031;-69
2022/05/31 04:10:32;;;;;;;11.23;9.85;;;9.20;99.90;;;;;;2087772;28;20025;-69
2022/05/31 04:11:33;;;;;;;11.65;9.55;;;9.20;99.90;;;;;;2088369;28;20076;-70
2022/05/31 04:12:39;;;;;;;12.38;9.50;;;9.20;99.90;;;;;;2088795;28;20564;-70
2022/05/31 04:14:03;;;;;;;13.68;10.63;;;9.30;99.90;;;;;;2096566;28;20049;-70
2022/05/31 04:15:17;;;;;;;11.40;9.52;;;9.40;99.90;;;;;;2096124;28;20024;-69
2022/05/31 04:16:19;;;;;;;11.57;10.30;;;9.50;99.90;;;;;;2088070;28;20025;-71
2022/05/31 04:17:27;;;;;;;12.25;10.88;;;9.60;99.90;;;;;;2089102;28;20028;-69
2022/05/31 04:18:28;;;;;;;10.95;9.80;;;9.70;99.90;;;;;;2096291;28;20028;-68
2022/05/31 04:19:29;;;;;;;10.70;9.10;;;9.70;99.90;;;;;;2096148;28;20070;-70
2022/05/31 04:20:30;;;;;;;11.27;8.77;;;9.80;99.90;;;;;;2087890;28;20433;-71
2022/05/31 04:21:31;;;;;;;9.82;8.55;;;9.80;99.90;;;;;;2096274;28;20016;-71
2022/05/31 04:22:32;;;;;;;10.13;9.13;;;9.90;99.90;;;;;;2096249;28;20505;-69
2022/05/31 04:23:59;;;;;;;11.00;9.90;;;9.90;99.90;;;;;;2096462;28;20909;-69
2022/05/31 04:25:12;;;;;;;10.23;9.18;;;10.00;99.90;;;;;;2096777;28;20043;-70
2022/05/31 04:26:37;;;;;;;9.50;8.40;;;10.00;99.90;;;;;;2096752;28;20050;-68
2022/05/31 04:27:57;;;;;;;9.90;8.50;;;10.10;99.90;;;;;;2097008;28;20402;-70
2022/05/31 04:29:23;;;;;;;9.05;8.15;;;10.20;99.90;;;;;;2096762;28;20060;-70
2022/05/31 04:30:44;;;;;;;9.00;8.10;;;10.40;99.90;;;;;;2096028;28;20048;-69
2022/05/31 04:32:16;;;;;;;12.07;9.80;;;10.60;99.90;;;;;;2096722;28;20036;-70
2022/05/31 04:33:20;;;;;;;10.93;9.63;;;10.70;99.90;;;;;;2096400;28;20052;-70
2022/05/31 04:34:21;;;;;;;9.98;8.82;;;10.90;99.90;;;;;;2096231;28;20723;-70
2022/05/31 04:35:21;;;;;;;8.32;7.53;;;11.10;99.90;;;;;;2087781;28;20104;-71
2022/05/31 04:36:22;;;;;;;7.95;7.15;;;11.20;99.90;;;;;;2096334;28;20694;-69
2022/05/31 04:37:23;;;;;;;7.60;6.80;;;11.40;99.90;;;;;;2096213;28;20025;-66
2022/05/31 04:38:42;;;;;;;7.82;6.90;;;11.60;99.90;;;;;;2096531;28;20044;-69
2022/05/31 04:39:54;;;;;;;8.90;6.35;;;11.80;99.90;;;;;;2095984;28;20618;-68
2022/05/31 04:41:14;;;;;;;6.15;5.55;;;12.10;99.90;;;;;;2089123;28;20099;-69
2022/05/31 04:42:25;;;;;;;6.20;5.60;;;12.40;99.90;;;;;;2096197;28;20017;-69
2022/05/31 04:43:26;;;;;;;8.07;5.55;;;12.90;99.90;;;;;;2087836;28;20085;-69
2022/05/31 04:44:40;;;;;;;5.70;5.20;;;13.20;99.90;;;;;;2089720;28;20074;-72
2022/05/31 04:45:41;;;;;;;5.53;5.00;;;13.50;99.90;;;;;;2095936;28;20024;-69
2022/05/31 04:47:07;;;;;;;6.18;5.40;;;13.80;99.90;;;;;;2096176;28;20033;-70
2022/05/31 04:48:15;;;;;;;6.05;5.55;;;14.10;99.90;;;;;;2088954;28;20025;-69
2022/05/31 04:49:16;;;;;;;7.68;6.00;;;14.10;99.90;;;;;;2087887;28;20021;-69
2022/05/31 04:50:17;;;;;;;7.88;5.47;;;14.00;99.90;;;;;;2087957;28;20051;-67
2022/05/31 04:51:18;;;;;;;5.93;5.43;;;14.00;99.90;;;;;;2095973;28;20032;-68
2022/05/31 04:52:27;;;;;;;5.57;5.07;;;13.90;99.90;;;;;;2088961;28;20040;-69
2022/05/31 04:53:31;;;;;;;6.78;5.70;;;13.70;99.90;;;;;;2088227;28;20028;-68
2022/05/31 04:54:47;;;;;;;5.75;4.75;;;13.60;99.90;;;;;;2096074;28;20121;-68
2022/05/31 04:56:08;;;;;;;5.40;4.90;;;13.70;99.90;;;;;;2095893;28;20478;-67
2022/05/31 04:57:09;;;;;;;5.60;5.10;;;13.80;99.90;;;;;;2095884;28;20596;-69
2022/05/31 04:58:10;;;;;;;5.20;4.70;;;14.10;99.90;;;;;;2087724;28;20143;-69
2022/05/31 04:59:11;;;;;;;5.53;5.03;;;14.30;99.90;;;;;;2096061;28;20021;-71
2022/05/31 05:00:14;;;;;;;5.40;4.88;;;14.40;99.90;;;;;;2087787;28;20586;-69
2022/05/31 05:01:34;;;;;;;4.88;4.40;;;14.40;99.90;;;;;;2090037;28;20032;-68
2022/05/31 05:02:38;;;;;;;7.55;4.80;;;14.40;99.90;;;;;;2088442;28;20161;-68
2022/05/31 05:03:45;;;;;;;7.70;5.32;;;14.30;99.90;;;;;;2096043;28;20094;-66
2022/05/31 05:04:46;;;;;;;10.43;5.32;;;14.20;99.90;;;;;;2087967;28;20029;-67
2022/05/31 05:06:06;;;;;;;20.15;6.35;;;14.20;99.90;;;;;;2090091;28;20035;-70
2022/05/31 05:07:07;;;;;;;9.93;5.00;;;14.30;99.90;;;;;;2095907;28;20025;-69
2022/05/31 05:08:07;;;;;;;18.00;6.70;;;14.50;99.90;;;;;;2087716;28;20013;-71
2022/05/31 05:09:10;;;;;;;13.98;6.10;;;14.70;99.90;;;;;;2087833;28;20116;-68
2022/05/31 05:10:18;;;;;;;16.52;7.20;;;14.90;99.90;;;;;;2088138;28;20103;-68
2022/05/31 05:11:40;;;;;;;11.43;6.53;;;15.20;99.90;;;;;;2090372;28;20036;-67
2022/05/31 05:12:54;;;;;;;11.52;6.13;;;15.40;99.90;;;;;;2089401;28;20033;-69
2022/05/31 05:14:14;;;;;;;9.43;5.95;;;15.40;99.90;;;;;;2089295;28;20021;-67
2022/05/31 05:15:29;;;;;;;12.82;5.90;;;15.50;99.90;;;;;;2095702;28;20035;-68
2022/05/31 05:16:30;;;;;;;7.82;5.20;;;15.60;99.90;;;;;;2087454;28;20083;-67
2022/05/31 05:17:30;;;;;;;9.43;5.20;;;15.60;99.90;;;;;;2087580;28;20071;-67
2022/05/31 05:18:32;;;;;;;17.33;6.00;;;15.60;99.90;;;;;;2096054;28;20464;-68
2022/05/31 05:19:33;;;;;;;7.75;5.30;;;15.60;99.90;;;;;;2095949;28;20029;-68
2022/05/31 05:20:36;;;;;;;7.47;5.68;;;15.60;99.90;;;;;;2087465;28;20033;-70
2022/05/31 05:21:37;;;;;;;5.95;5.20;;;15.50;99.90;;;;;;2088068;28;20159;-69
2022/05/31 05:22:38;;;;;;;7.13;5.38;;;15.50;99.90;;;;;;2096006;28;20028;-69
2022/05/31 05:23:40;;;;;;;6.30;5.70;;;15.70;99.90;;;;;;2079773;28;20116;-68
2022/05/31 05:24:45;;;;;;;6.05;5.35;;;15.70;99.90;;;;;;2080015;28;20025;-69
2022/05/31 05:26:06;;;;;;;6.65;5.28;;;15.50;99.90;;;;;;2091241;28;20024;-69
2022/05/31 05:27:09;;;;;;;5.80;5.22;;;15.30;99.90;;;;;;2096332;28;20064;-69
2022/05/31 05:31:57;;;;;;;10.32;5.75;;;14.80;99.90;;;;;;2067405;28;20038;-67
2022/05/31 05:33:30;;;;;;;7.35;5.88;;;14.70;99.90;;;;;;2096403;28;20552;-67
2022/05/31 05:34:55;;;;;;;8.60;5.72;;;14.60;99.90;;;;;;2092735;28;20520;-68
2022/05/31 05:35:57;;;;;;;19.35;7.45;;;14.50;99.90;;;;;;2095894;28;20083;-68
2022/05/31 05:36:57;;;;;;;10.52;6.47;;;14.20;99.90;;;;;;2087340;28;20100;-69
2022/05/31 05:38:00;;;;;;;6.55;5.70;;;14.10;99.90;;;;;;2087344;28;20020;-69
2022/05/31 05:39:10;;;;;;;7.57;5.85;;;14.00;99.90;;;;;;2095656;28;20067;-69
2022/05/31 05:40:13;;;;;;;6.90;6.20;;;13.80;99.90;;;;;;2095753;28;20606;-69
2022/05/31 05:41:22;;;;;;;7.07;6.38;;;13.70;99.90;;;;;;2095501;28;20025;-69
2022/05/31 05:42:43;;;;;;;7.30;6.50;;;13.50;99.90;;;;;;2095890;28;20540;-70
2022/05/31 05:43:50;;;;;;;8.75;7.20;;;13.40;99.90;;;;;;2095610;28;20032;-70
2022/05/31 05:44:54;;;;;;;8.07;7.13;;;13.20;99.90;;;;;;2087360;28;20060;-68
2022/05/31 05:45:55;;;;;;;10.02;7.57;;;12.90;99.90;;;;;;2079293;28;20037;-72
2022/05/31 05:46:56;;;;;;;9.68;8.02;;;12.80;99.90;;;;;;2087273;28;20033;-70
2022/05/31 05:47:56;;;;;;;11.25;7.68;;;12.80;99.90;;;;;;2095311;28;20027;-69
2022/05/31 05:48:57;;;;;;;8.95;7.00;;;12.70;99.90;;;;;;2095483;28;20028;-68
2022/05/31 05:49:58;;;;;;;7.65;6.93;;;12.80;99.90;;;;;;2087232;28;20025;-68
2022/05/31 05:51:18;;;;;;;7.00;6.30;;;12.90;99.90;;;;;;2089952;28;20049;-68
2022/05/31 05:52:40;;;;;;;7.85;7.05;;;13.10;99.90;;;;;;2096658;28;20044;-68
2022/05/31 05:54:02;;;;;;;11.00;7.50;;;13.00;99.90;;;;;;2096485;28;20048;-69
2022/05/31 05:55:21;;;;;;;8.95;6.63;;;13.00;99.90;;;;;;2096395;28;20044;-67
2022/05/31 05:56:40;;;;;;;7.32;6.53;;;12.90;99.90;;;;;;2096370;28;20449;-69